Terminal Aerodrome Forecast
Issued by NWS Tallahassee, FL

Home | Current Version | Previous Version | Text Only | Print | Product List | Glossary On
Versions: 1 2 3 4 5 6 7 8 9 10 11 12 13 14 15 16
000
FTUS42 KTAE 020500
TAFTLH
TAF
KTLH 020530Z 0206/0306 04004KT P6SM SCT005 OVC050
      TEMPO 0206/0210 1SM BR OVC005
     FM021000 00000KT 1/2SM FG OVC004
     FM021500 VRB04KT 5SM BR OVC007
     FM021800 23005KT P6SM BKN025 OVC050
     FM030000 17002KT P6SM OVC050=

USA.gov is the U.S. government's official web portal to all federal, state and local government web resources and services.